Time;durP1;ratioP1;P1;durP2;ratioP2;P2;SDS_P1;SDS_P2;PMS_P1;PMS_P2;Temp;Humidity;BMP_temperature;BMP_pressure;BME280_temperature;BME280_humidity;BME280_pressure;Samples;Min_cycle;Max_cycle;Signal;HPM_P1;HPM_P2
2022/01/07 00:01:57;;;;;;;17.02;6.53;;;;;;;2.81;100.00;101405.34;5325017;28;20024;-82
2022/01/07 00:04:31;;;;;;;12.60;6.13;;;;;;;2.78;100.00;101416.88;5324168;27;20106;-83
2022/01/07 00:07:04;;;;;;;14.65;6.45;;;;;;;2.70;100.00;101405.91;5323556;28;20127;-83
2022/01/07 00:09:36;;;;;;;13.30;6.43;;;;;;;2.57;100.00;101389.00;5324869;28;20119;-83
2022/01/07 00:12:08;;;;;;;13.68;5.88;;;;;;;2.59;100.00;101393.25;5324852;28;20471;-83
2022/01/07 00:14:39;;;;;;;13.63;6.03;;;;;;;2.53;100.00;101398.84;5324719;28;20024;-82
2022/01/07 00:17:10;;;;;;;14.27;6.20;;;;;;;2.46;100.00;101393.00;5324815;28;20468;-82
2022/01/07 00:19:42;;;;;;;11.77;5.53;;;;;;;2.46;100.00;101377.22;5309490;28;20031;-82
2022/01/07 00:22:13;;;;;;;12.27;5.90;;;;;;;2.37;100.00;101369.78;5324250;28;20052;-83
2022/01/07 00:24:45;;;;;;;14.68;6.30;;;;;;;2.32;100.00;101363.06;5325906;28;20046;-83
2022/01/07 00:27:16;;;;;;;15.75;5.72;;;;;;;2.24;100.00;101350.25;5326620;28;20050;-83
2022/01/07 00:29:47;;;;;;;13.27;6.10;;;;;;;2.36;100.00;101397.03;5325729;28;20032;-82
2022/01/07 00:32:19;;;;;;;11.63;5.60;;;;;;;2.37;100.00;101364.53;5326932;28;20024;-83
2022/01/07 00:34:50;;;;;;;14.15;6.50;;;;;;;2.36;100.00;101364.59;5308306;28;20028;-83
2022/01/07 00:37:22;;;;;;;15.20;6.20;;;;;;;2.32;100.00;101356.00;5325102;28;20035;-83
2022/01/07 00:39:53;;;;;;;15.30;6.40;;;;;;;2.23;100.00;101332.78;5306156;28;20024;-83
2022/01/07 00:42:24;;;;;;;11.25;5.32;;;;;;;2.20;100.00;101341.66;5324673;28;20036;-83
2022/01/07 00:44:55;;;;;;;14.13;6.43;;;;;;;2.11;100.00;101326.31;5324546;28;20399;-83
2022/01/07 00:47:27;;;;;;;11.77;6.20;;;;;;;2.08;100.00;101334.38;5323925;28;20043;-83
2022/01/07 00:49:58;;;;;;;15.73;5.78;;;;;;;2.10;100.00;101331.66;5306165;28;20016;-83
2022/01/07 00:52:30;;;;;;;16.90;7.25;;;;;;;2.13;100.00;101318.38;5324020;28;20062;-83
2022/01/07 00:55:01;;;;;;;13.75;6.22;;;;;;;2.05;100.00;101301.19;5305995;28;20027;-82
2022/01/07 00:57:33;;;;;;;11.25;6.05;;;;;;;2.14;100.00;101306.88;5323998;28;20492;-83
2022/01/07 01:00:08;;;;;;;10.35;5.70;;;;;;;2.20;100.00;101301.34;5305311;28;20481;-83
2022/01/07 01:02:40;;;;;;;13.45;5.50;;;;;;;2.27;100.00;101321.16;5305246;28;20057;-83
2022/01/07 01:05:13;;;;;;;14.85;6.85;;;;;;;2.39;100.00;101296.00;5323213;27;20484;-83
2022/01/07 01:07:45;;;;;;;12.48;6.22;;;;;;;2.31;100.00;101301.63;5322643;28;20032;-83
2022/01/07 01:10:18;;;;;;;12.57;5.30;;;;;;;2.32;100.00;101313.03;5323487;28;20024;-83
2022/01/07 01:12:50;;;;;;;11.68;5.28;;;;;;;2.26;100.00;101269.41;5323489;28;20376;-83
2022/01/07 01:15:24;;;;;;;12.45;5.30;;;;;;;2.33;100.00;101285.75;5323243;28;20482;-83
2022/01/07 01:17:58;;;;;;;12.18;5.10;;;;;;;2.39;100.00;101280.19;5323188;28;20032;-83
2022/01/07 01:20:31;;;;;;;15.55;5.10;;;;;;;2.36;100.00;101269.81;5324214;28;20028;-83
2022/01/07 01:23:03;;;;;;;10.40;5.10;;;;;;;2.40;100.00;101277.47;5305715;28;20078;-83
2022/01/07 01:25:34;;;;;;;11.05;5.43;;;;;;;2.46;100.00;101271.03;5324981;28;20571;-83
2022/01/07 01:28:06;;;;;;;7.55;3.85;;;;;;;2.41;100.00;101265.16;5318443;28;20081;-83
2022/01/07 01:30:38;;;;;;;10.82;4.70;;;;;;;2.38;100.00;101247.72;5317741;28;20071;-83
2022/01/07 01:33:11;;;;;;;14.80;5.38;;;;;;;2.44;100.00;101242.16;5322708;28;20024;-83
2022/01/07 01:35:43;;;;;;;8.32;4.07;;;;;;;2.50;100.00;101261.19;5324081;28;20171;-83
2022/01/07 01:38:15;;;;;;;8.27;3.95;;;;;;;2.52;100.00;101261.97;5304010;28;20700;-82
2022/01/07 01:40:47;;;;;;;13.07;6.03;;;;;;;2.58;100.00;101259.03;5323686;28;20035;-82
2022/01/07 01:43:18;;;;;;;11.95;4.70;;;;;;;2.54;100.00;101254.81;5323428;28;20024;-82
2022/01/07 01:45:49;;;;;;;13.18;5.28;;;;;;;2.53;100.00;101240.81;5322666;28;20396;-83
2022/01/07 01:48:21;;;;;;;12.32;4.68;;;;;;;2.45;100.00;101228.06;5322695;28;20059;-83
2022/01/07 01:50:55;;;;;;;13.45;4.60;;;;;;;2.56;100.00;101230.13;5323563;28;20024;-83
2022/01/07 01:53:26;;;;;;;10.73;4.25;;;;;;;2.57;100.00;101237.06;5322920;28;20470;-83
2022/01/07 01:55:58;;;;;;;8.88;3.65;;;;;;;2.54;100.00;101205.66;5324180;28;20025;-83
2022/01/07 01:58:30;;;;;;;9.73;4.70;;;;;;;2.59;100.00;101205.41;5323022;28;20028;-83
2022/01/07 02:01:02;;;;;;;9.02;4.28;;;;;;;2.65;100.00;101210.34;5324156;28;20147;-83
2022/01/07 02:03:33;;;;;;;11.75;3.60;;;;;;;2.61;100.00;101203.53;5321569;27;20591;-83
2022/01/07 02:06:05;;;;;;;9.48;3.72;;;;;;;2.71;100.00;101210.00;5322551;28;20036;-82
2022/01/07 02:08:37;;;;;;;10.27;3.80;;;;;;;2.72;100.00;101216.13;5322947;28;20032;-83
2022/01/07 02:11:08;;;;;;;9.60;3.78;;;;;;;2.71;100.00;101202.09;5305495;28;20028;-83
2022/01/07 02:13:39;;;;;;;10.38;3.67;;;;;;;2.70;100.00;101202.19;5323874;28;20392;-82
2022/01/07 02:16:11;;;;;;;9.27;3.42;;;;;;;2.68;100.00;101194.34;5312245;28;20032;-82
2022/01/07 02:18:43;;;;;;;10.77;3.30;;;;;;;2.73;100.00;101210.78;5323321;28;32845;-82
2022/01/07 02:21:15;;;;;;;9.07;3.65;;;;;;;2.71;100.00;101211.81;5308157;28;20048;-83
2022/01/07 02:23:46;;;;;;;9.57;3.28;;;;;;;2.60;100.00;101199.22;5326517;28;20127;-83
2022/01/07 02:26:19;;;;;;;10.57;3.70;;;;;;;2.61;100.00;101228.09;5326398;28;20042;-82
2022/01/07 02:28:50;;;;;;;5.75;2.75;;;;;;;2.48;100.00;101189.34;5327113;28;20028;-82
2022/01/07 02:31:22;;;;;;;9.18;3.30;;;;;;;2.40;100.00;101201.13;5326782;28;20028;-83
2022/01/07 02:33:53;;;;;;;11.15;4.75;;;;;;;2.37;100.00;101195.19;5328308;28;20024;-83
2022/01/07 02:36:24;;;;;;;9.65;4.18;;;;;;;2.28;100.00;101209.66;5309034;28;20028;-82
2022/01/07 02:38:56;;;;;;;13.65;3.80;;;;;;;2.18;100.00;101197.91;5328238;28;20034;-82
2022/01/07 02:41:27;;;;;;;13.40;4.32;;;;;;;2.04;100.00;101188.94;5324752;28;20024;-82
2022/01/07 02:43:59;;;;;;;12.05;4.10;;;;;;;1.95;100.00;101180.69;5327478;28;20020;-82
2022/01/07 02:46:30;;;;;;;7.55;3.92;;;;;;;1.91;100.00;101194.91;5328318;28;20059;-83
2022/01/07 02:49:13;;;;;;;12.50;4.15;;;;;;;1.84;100.00;101191.72;5327055;28;20478;-82
2022/01/07 02:51:46;;;;;;;13.77;4.95;;;;;;;1.84;100.00;101191.72;5325454;28;20071;-83
2022/01/07 02:54:18;;;;;;;11.68;4.50;;;;;;;1.74;100.00;101183.47;5326307;28;20125;-83
2022/01/07 02:56:49;;;;;;;10.82;5.10;;;;;;;1.77;100.00;101191.22;5323354;28;20066;-82
2022/01/07 02:59:21;;;;;;;13.38;5.60;;;;;;;1.73;100.00;101175.66;5325781;28;20098;-82
2022/01/07 03:01:52;;;;;;;13.10;5.00;;;;;;;1.61;100.00;101183.22;5324905;28;20071;-82
2022/01/07 03:04:26;;;;;;;16.30;5.20;;;;;;;1.63;100.00;101167.34;5326016;27;20044;-82
2022/01/07 03:06:57;;;;;;;14.02;5.93;;;;;;;1.58;100.00;101166.75;5325632;28;20067;-82
2022/01/07 03:09:29;;;;;;;17.45;5.97;;;;;;;1.50;100.00;101167.97;5325770;28;20028;-82
2022/01/07 03:12:00;;;;;;;13.40;5.18;;;;;;;1.46;100.00;101163.81;5325813;28;20024;-82
2022/01/07 03:14:31;;;;;;;13.18;6.50;;;;;;;1.32;100.00;101148.72;5319187;28;20044;-82
2022/01/07 03:17:03;;;;;;;15.48;5.68;;;;;;;1.31;100.00;101156.66;5318656;28;20099;-82
2022/01/07 03:19:34;;;;;;;14.00;6.13;;;;;;;1.27;100.00;101145.47;5316632;28;20028;-82
2022/01/07 03:22:06;;;;;;;12.75;6.05;;;;;;;1.27;100.00;101147.25;5317537;28;20112;-82
2022/01/07 03:24:38;;;;;;;13.32;6.07;;;;;;;1.24;100.00;101136.88;5325377;28;20016;-82
2022/01/07 03:27:09;;;;;;;12.70;6.38;;;;;;;1.24;100.00;101139.50;5322882;28;20436;-82
2022/01/07 03:29:40;;;;;;;20.10;6.18;;;;;;;1.20;100.00;101137.97;5325836;28;20043;-82
2022/01/07 03:32:12;;;;;;;13.50;6.65;;;;;;;1.23;100.00;101137.81;5325390;27;20038;-82
2022/01/07 03:34:43;;;;;;;17.55;7.38;;;;;;;1.20;100.00;101132.69;5325170;28;20054;-82
2022/01/07 03:37:14;;;;;;;16.30;6.53;;;;;;;1.17;100.00;101128.44;5324672;28;20028;-82
2022/01/07 03:39:46;;;;;;;14.60;6.40;;;;;;;1.21;100.00;101139.63;5306968;28;20020;-82
2022/01/07 03:42:17;;;;;;;16.55;7.55;;;;;;;1.18;100.00;101124.88;5324731;28;20028;-82
2022/01/07 03:44:48;;;;;;;14.25;6.88;;;;;;;1.28;100.00;101136.66;5325965;28;20069;-82
2022/01/07 03:47:20;;;;;;;11.63;6.55;;;;;;;1.23;100.00;101120.25;5314335;28;20483;-82
2022/01/07 03:49:51;;;;;;;13.68;7.05;;;;;;;1.32;100.00;101134.72;5325292;28;20082;-82
2022/01/07 03:52:22;;;;;;;15.25;7.47;;;;;;;1.35;100.00;101141.59;5324852;28;20032;-82
2022/01/07 03:54:54;;;;;;;14.48;7.47;;;;;;;1.38;100.00;101128.31;5324950;28;20361;-82
2022/01/07 03:57:25;;;;;;;14.40;8.10;;;;;;;1.39;100.00;101125.59;5324441;28;20392;-82
2022/01/07 03:59:56;;;;;;;19.85;9.02;;;;;;;1.39;100.00;101114.25;5325085;28;20046;-82
2022/01/07 04:02:28;;;;;;;15.25;8.18;;;;;;;1.40;100.00;101111.53;5314976;28;20103;-83
2022/01/07 04:04:59;;;;;;;17.80;7.85;;;;;;;1.44;100.00;101110.47;5324419;27;20048;-82
2022/01/07 04:07:33;;;;;;;13.23;7.47;;;;;;;1.41;100.00;101107.97;5323997;28;20085;-83
2022/01/07 04:10:05;;;;;;;10.75;7.30;;;;;;;1.41;100.00;101109.75;5324532;28;20028;-83
2022/01/07 04:12:36;;;;;;;18.88;8.38;;;;;;;1.40;100.00;101108.88;5323915;28;20556;-83
2022/01/07 04:15:08;;;;;;;12.88;8.55;;;;;;;1.39;100.00;101080.09;5325766;28;20328;-83
2022/01/07 04:17:47;;;;;;;14.73;7.78;;;;;;;1.41;100.00;101115.88;5323852;28;20025;-83
2022/01/07 04:20:22;;;;;;;15.85;7.35;;;;;;;1.40;100.00;101087.84;5305233;28;20043;-83
2022/01/07 04:22:54;;;;;;;12.20;7.40;;;;;;;1.50;100.00;101098.78;5323542;28;20024;-83
2022/01/07 04:25:26;;;;;;;12.23;7.38;;;;;;;1.54;100.00;101108.19;5324196;28;20028;-83
2022/01/07 04:28:01;;;;;;;16.52;9.25;;;;;;;1.57;100.00;101109.84;5306139;28;20028;-82
2022/01/07 04:30:36;;;;;;;18.73;8.90;;;;;;;1.56;100.00;101093.22;5323381;28;20024;-83
2022/01/07 04:33:10;;;;;;;14.80;9.52;;;;;;;1.61;100.00;101103.47;5324136;28;20031;-83
2022/01/07 04:35:42;;;;;;;13.02;9.68;;;;;;;1.68;100.00;101108.38;5325360;28;20533;-82
2022/01/07 04:38:14;;;;;;;16.95;10.48;;;;;;;1.72;100.00;101111.69;5321505;27;20415;-83
2022/01/07 04:40:45;;;;;;;15.23;10.02;;;;;;;1.77;100.00;101117.56;5323594;28;20035;-83
2022/01/07 04:43:17;;;;;;;15.10;9.77;;;;;;;1.83;100.00;101106.72;5322978;27;20372;-83
2022/01/07 04:45:48;;;;;;;14.93;9.73;;;;;;;1.85;100.00;101110.09;5323860;28;20031;-84
2022/01/07 04:48:19;;;;;;;12.52;9.07;;;;;;;1.85;100.00;101106.63;5324040;28;20028;-83
2022/01/07 04:50:51;;;;;;;14.68;9.73;;;;;;;1.84;100.00;101104.91;5324724;28;20024;-83
2022/01/07 04:53:26;;;;;;;16.15;10.75;;;;;;;1.80;100.00;101083.19;5323657;28;20062;-83
2022/01/07 04:55:59;;;;;;;16.48;10.43;;;;;;;1.91;100.00;101108.94;5323513;28;20028;-82
2022/01/07 04:58:30;;;;;;;13.45;10.25;;;;;;;1.88;100.00;101088.91;5323727;28;20024;-83
2022/01/07 05:01:01;;;;;;;17.60;11.82;;;;;;;1.91;100.00;101089.69;5321424;27;20024;-82
2022/01/07 05:03:32;;;;;;;13.68;10.05;;;;;;;1.92;100.00;101080.88;5328738;27;28824;-83
2022/01/07 05:06:30;;;;;;;14.27;10.73;;;;;;;1.97;100.00;101081.47;5331809;27;20043;-83
2022/01/07 05:08:55;;;;;;;15.25;11.50;;;;;;;2.06;100.00;101091.50;5333006;27;20090;-82
2022/01/07 05:11:26;;;;;;;16.63;12.10;;;;;;;2.08;100.00;101085.22;5336200;27;20032;-83
2022/01/07 05:13:57;;;;;;;19.30;11.48;;;;;;;2.12;100.00;101058.75;5329796;27;20483;-83
2022/01/07 05:16:29;;;;;;;18.88;12.13;;;;;;;2.16;100.00;101073.44;5330506;27;20052;-83
2022/01/07 05:19:01;;;;;;;22.15;12.50;;;;;;;2.18;100.00;101063.69;5327346;27;20028;-83
2022/01/07 05:21:33;;;;;;;19.38;13.10;;;;;;;2.16;100.00;101066.41;5322997;28;20024;-83
2022/01/07 05:24:05;;;;;;;18.92;12.65;;;;;;;2.16;100.00;101076.91;5323696;27;20040;-83
2022/01/07 05:26:36;;;;;;;20.08;12.48;;;;;;;2.15;100.00;101082.25;5318989;28;20044;-83
2022/01/07 05:29:08;;;;;;;18.98;13.45;;;;;;;2.17;100.00;101065.44;5311679;28;20094;-83
2022/01/07 05:31:39;;;;;;;21.05;12.35;;;;;;;2.18;100.00;101072.41;5323019;28;20027;-83
2022/01/07 05:34:10;;;;;;;15.70;12.32;;;;;;;2.20;100.00;101061.81;5323462;28;20074;-83
2022/01/07 05:36:42;;;;;;;17.20;14.02;;;;;;;2.22;100.00;101073.94;5322391;28;20441;-83
2022/01/07 05:39:13;;;;;;;21.77;13.80;;;;;;;2.25;100.00;101070.31;5305073;28;20050;-83
2022/01/07 05:41:45;;;;;;;21.00;13.48;;;;;;;2.21;100.00;101064.38;5304659;28;20473;-83
2022/01/07 05:44:17;;;;;;;20.05;14.48;;;;;;;2.21;100.00;101042.44;5323107;28;20048;-83
2022/01/07 05:46:48;;;;;;;23.27;14.10;;;;;;;2.24;100.00;101063.34;5320566;27;20032;-83
2022/01/07 05:49:19;;;;;;;21.08;13.48;;;;;;;2.31;100.00;101077.84;5330497;27;20031;-83
2022/01/07 05:51:50;;;;;;;15.32;13.27;;;;;;;2.31;100.00;101056.81;5326555;27;20012;-83
2022/01/07 05:54:22;;;;;;;23.23;13.43;;;;;;;2.27;100.00;101052.66;5322640;27;20031;-83
2022/01/07 05:56:54;;;;;;;19.05;14.35;;;;;;;2.43;100.00;101052.66;5311694;27;20020;-83
2022/01/07 05:59:25;;;;;;;23.02;15.07;;;;;;;2.45;100.00;101045.50;5317918;27;20134;-83
2022/01/07 06:01:57;;;;;;;19.75;12.77;;;;;;;2.34;100.00;101040.84;5333710;27;20526;-83
2022/01/07 06:04:28;;;;;;;18.25;14.75;;;;;;;2.33;100.00;101040.94;5333858;27;20119;-83
2022/01/07 06:06:59;;;;;;;20.92;14.68;;;;;;;2.39;100.00;101038.81;5310061;27;20403;-83
2022/01/07 06:09:31;;;;;;;21.00;14.30;;;;;;;2.44;100.00;101060.47;5322620;27;20049;-83
2022/01/07 06:12:02;;;;;;;20.20;14.20;;;;;;;2.37;100.00;101030.16;5327314;27;20024;-83
2022/01/07 06:14:34;;;;;;;17.13;13.48;;;;;;;2.44;100.00;101052.56;5295773;28;20017;-82
2022/01/07 06:17:08;;;;;;;20.90;13.82;;;;;;;2.54;100.00;101065.22;5306199;28;20035;-83
2022/01/07 06:19:39;;;;;;;15.60;13.82;;;;;;;2.49;100.00;101056.72;5326732;28;20075;-83
2022/01/07 06:22:10;;;;;;;18.05;12.35;;;;;;;2.50;100.00;101061.06;5326386;28;20028;-82
2022/01/07 06:24:42;;;;;;;17.60;14.07;;;;;;;2.48;100.00;101047.97;5320887;28;20330;-82
2022/01/07 06:27:13;;;;;;;18.90;13.65;;;;;;;2.54;100.00;101068.72;5306353;28;20389;-82
2022/01/07 06:29:45;;;;;;;17.33;14.23;;;;;;;2.52;100.00;101064.47;5320589;28;40921;-83
2022/01/07 06:32:17;;;;;;;18.92;13.75;;;;;;;2.57;100.00;101065.91;5327495;28;20123;-83
2022/01/07 06:34:48;;;;;;;18.83;13.38;;;;;;;2.56;100.00;101047.53;5327654;28;20099;-82
2022/01/07 06:37:20;;;;;;;24.52;14.10;;;;;;;2.64;100.00;101053.25;5324844;28;20039;-82
2022/01/07 06:39:52;;;;;;;14.10;10.60;;;;;;;2.63;100.00;101055.03;5327031;28;20020;-82
2022/01/07 06:42:23;;;;;;;19.10;13.70;;;;;;;2.62;100.00;101055.97;5309111;28;20377;-83
2022/01/07 06:44:54;;;;;;;17.30;13.02;;;;;;;2.67;100.00;101066.25;5326231;28;20032;-83
2022/01/07 06:47:26;;;;;;;21.05;14.43;;;;;;;2.70;100.00;101065.22;5327252;28;20166;-83
2022/01/07 06:49:57;;;;;;;17.33;13.35;;;;;;;2.62;100.00;101050.69;5321510;28;20490;-83
2022/01/07 06:52:29;;;;;;;22.08;13.85;;;;;;;2.66;100.00;101051.38;5306045;28;20107;-83
2022/01/07 06:55:01;;;;;;;23.80;14.32;;;;;;;2.71;100.00;101061.66;5302480;28;20028;-83
2022/01/07 06:57:32;;;;;;;19.63;13.98;;;;;;;2.69;100.00;101042.47;5327250;28;20483;-83
2022/01/07 07:00:05;;;;;;;19.98;14.23;;;;;;;2.79;100.00;101060.28;5308365;28;20074;-83
2022/01/07 07:02:36;;;;;;;20.05;13.48;;;;;;;2.79;100.00;101056.81;5326526;27;20087;-83
2022/01/07 07:05:08;;;;;;;25.55;14.73;;;;;;;2.79;100.00;101052.38;5325255;27;20048;-83
2022/01/07 07:07:39;;;;;;;22.02;13.32;;;;;;;2.81;100.00;101057.56;5326083;28;20472;-83
2022/01/07 07:10:10;;;;;;;23.83;13.95;;;;;;;2.82;100.00;101057.47;5326312;28;20913;-83
2022/01/07 07:12:42;;;;;;;22.33;13.35;;;;;;;2.81;100.00;101052.31;5308548;28;20040;-82
2022/01/07 07:15:13;;;;;;;25.60;14.57;;;;;;;2.82;100.00;101054.84;5326808;28;20353;-83
2022/01/07 07:17:45;;;;;;;23.77;14.93;;;;;;;2.88;100.00;101058.06;5326475;27;20058;-83
2022/01/07 07:20:16;;;;;;;25.50;14.85;;;;;;;2.91;100.00;101066.66;5326482;28;20107;-82
2022/01/07 07:22:48;;;;;;;23.42;14.05;;;;;;;2.91;100.00;101071.91;5326515;28;20349;-82
2022/01/07 07:25:22;;;;;;;22.60;15.63;;;;;;;2.91;100.00;101071.91;5326624;28;20439;-82
2022/01/07 07:27:54;;;;;;;21.17;13.98;;;;;;;2.89;100.00;101057.97;5303548;28;20074;-82
2022/01/07 07:30:32;;;;;;;26.27;14.63;;;;;;;2.97;100.00;101058.38;5314221;28;20423;-82
2022/01/07 07:33:30;;;;;;;27.38;13.95;;;;;;;2.99;100.00;101056.50;5326728;28;20020;-82
2022/01/07 07:38:50;;;;;;;24.98;15.38;;;;;;;3.06;100.00;101058.78;5326612;28;20032;-82
2022/01/07 07:41:21;;;;;;;22.40;14.68;;;;;;;3.02;100.00;101056.31;5326594;28;20039;-82
2022/01/07 07:43:53;;;;;;;18.95;14.70;;;;;;;3.03;100.00;101050.13;5326071;28;20023;-83
2022/01/07 07:46:26;;;;;;;18.48;14.80;;;;;;;3.09;100.00;101046.28;5326506;28;20120;-82
2022/01/07 07:49:00;;;;;;;22.27;14.38;;;;;;;3.13;100.00;101041.69;5306919;28;20030;-82
2022/01/07 07:51:31;;;;;;;22.73;14.27;;;;;;;3.11;100.00;101039.13;5326245;28;20115;-82
2022/01/07 07:54:04;;;;;;;18.15;14.35;;;;;;;3.13;100.00;101045.16;5326235;28;20122;-82
2022/01/07 07:56:36;;;;;;;18.25;13.02;;;;;;;3.18;100.00;101045.75;5326168;28;20020;-82
2022/01/07 07:59:07;;;;;;;19.45;14.27;;;;;;;3.23;100.00;101063.94;5316883;28;20024;-82
2022/01/07 08:01:38;;;;;;;22.10;13.15;;;;;;;3.25;100.00;101067.31;5321741;28;20024;-83
2022/01/07 08:04:12;;;;;;;20.27;14.05;;;;;;;3.29;100.00;101083.81;5326009;27;20495;-82
2022/01/07 08:06:44;;;;;;;20.55;13.05;;;;;;;3.20;100.00;101048.28;5325415;28;20039;-82
2022/01/07 08:09:15;;;;;;;21.40;14.50;;;;;;;3.31;100.00;101058.19;5307677;28;20020;-82
2022/01/07 08:11:52;;;;;;;20.55;14.27;;;;;;;3.37;100.00;101057.84;5326150;28;20027;-82
2022/01/07 08:17:13;;;;;;;17.83;12.70;;;;;;;3.31;100.00;101040.59;5325362;28;20103;-82
2022/01/07 08:19:45;;;;;;;21.20;12.57;;;;;;;3.33;100.00;101037.88;5325896;28;20100;-82
2022/01/07 08:22:16;;;;;;;21.08;13.10;;;;;;;3.36;100.00;101033.25;5325566;28;20535;-82
2022/01/07 08:24:47;;;;;;;18.88;12.52;;;;;;;3.38;100.00;101033.16;5325557;28;20540;-82
2022/01/07 08:27:21;;;;;;;23.25;12.38;;;;;;;3.33;100.00;101029.94;5325664;28;20016;-82
2022/01/07 08:29:52;;;;;;;23.90;13.10;;;;;;;3.32;100.00;101018.56;5325450;28;20119;-82
2022/01/07 08:35:13;;;;;;;20.08;13.18;;;;;;;3.28;100.00;101022.34;5325496;28;20040;-82
2022/01/07 08:37:45;;;;;;;18.35;12.60;;;;;;;3.37;100.00;101050.78;5306630;28;20058;-82
2022/01/07 08:40:16;;;;;;;21.67;13.73;;;;;;;3.40;100.00;101044.47;5325306;28;20123;-82
2022/01/07 08:42:47;;;;;;;18.63;11.93;;;;;;;3.45;100.00;101033.66;5306797;28;20562;-82
2022/01/07 08:45:19;;;;;;;21.77;12.32;;;;;;;3.42;100.00;101034.69;5325617;28;20048;-82
2022/01/07 08:47:50;;;;;;;21.90;12.05;;;;;;;3.52;100.00;101038.44;5324859;28;20039;-82
2022/01/07 08:50:21;;;;;;;17.77;11.77;;;;;;;3.53;100.00;101031.41;5307270;28;20382;-82
2022/01/07 08:52:55;;;;;;;21.92;12.13;;;;;;;3.56;100.00;101033.88;5323983;28;20397;-82
2022/01/07 08:55:27;;;;;;;17.90;12.00;;;;;;;3.58;100.00;101047.81;5325328;28;20032;-82
2022/01/07 08:57:58;;;;;;;15.10;10.57;;;;;;;3.63;100.00;101047.50;5325027;28;20086;-82
2022/01/07 09:00:33;;;;;;;21.85;13.77;;;;;;;3.66;100.00;101055.25;5307000;28;20108;-82
2022/01/07 09:03:04;;;;;;;15.98;11.88;;;;;;;3.65;100.00;101045.66;5324797;28;20534;-82
2022/01/07 09:05:36;;;;;;;23.42;11.52;;;;;;;3.64;100.00;101042.16;5338450;27;20061;-82
2022/01/07 09:08:09;;;;;;;17.23;11.02;;;;;;;3.67;100.00;101038.50;5344439;27;20024;-82
2022/01/07 09:10:41;;;;;;;17.98;12.25;;;;;;;3.68;100.00;101040.19;5344389;27;20023;-82
2022/01/07 09:13:12;;;;;;;20.27;11.77;;;;;;;3.66;100.00;101049.97;5346411;27;20023;-82
2022/01/07 09:15:43;;;;;;;20.30;11.85;;;;;;;3.68;100.00;101056.00;5344954;27;20047;-82
2022/01/07 09:18:15;;;;;;;15.52;11.65;;;;;;;3.67;100.00;101049.06;5345859;27;20028;-82
2022/01/07 09:20:47;;;;;;;16.27;10.30;;;;;;;3.67;100.00;101035.84;5344406;27;20141;-81
2022/01/07 09:23:18;;;;;;;16.65;10.70;;;;;;;3.70;100.00;101043.56;5345845;27;20024;-81
2022/01/07 09:25:49;;;;;;;16.13;11.02;;;;;;;3.66;100.00;101035.00;5343097;27;20336;-81
2022/01/07 09:28:21;;;;;;;17.27;10.57;;;;;;;3.71;100.00;101040.84;5323846;28;24181;-81
2022/01/07 09:30:52;;;;;;;18.65;11.43;;;;;;;3.77;100.00;101039.63;5324003;27;20303;-81
2022/01/07 09:33:23;;;;;;;15.75;10.82;;;;;;;3.85;100.00;101031.25;5323384;28;20043;-81
2022/01/07 09:35:55;;;;;;;19.63;10.73;;;;;;;3.89;100.00;101030.97;5332876;27;20043;-81
2022/01/07 09:38:26;;;;;;;15.43;10.15;;;;;;;4.09;100.00;101032.34;5345540;27;20107;-81
2022/01/07 09:40:59;;;;;;;15.40;9.10;;;;;;;4.27;100.00;101032.97;5345765;27;20111;-81
2022/01/07 09:43:31;;;;;;;16.65;8.95;;;;;;;4.29;100.00;101040.81;5344386;27;20012;-81
2022/01/07 09:46:02;;;;;;;20.52;9.13;;;;;;;4.26;100.00;101023.38;5344197;27;20039;-81
2022/01/07 09:48:35;;;;;;;15.73;8.52;;;;;;;4.48;100.00;101045.78;5346063;27;20095;-81
2022/01/07 09:51:07;;;;;;;13.20;8.10;;;;;;;4.60;100.00;101036.22;5345002;27;20023;-81
2022/01/07 09:53:38;;;;;;;11.70;7.22;;;;;;;4.83;100.00;101027.63;5345887;27;20080;-81
2022/01/07 09:56:11;;;;;;;13.40;6.90;;;;;;;4.80;100.00;101029.63;5345581;27;20059;-81
2022/01/07 09:58:42;;;;;;;12.00;7.57;;;;;;;4.73;100.00;101037.09;5345967;27;20471;-82
2022/01/07 10:01:16;;;;;;;10.52;6.80;;;;;;;4.63;100.00;101026.31;5345721;27;20034;-81
2022/01/07 10:03:47;;;;;;;9.77;6.20;;;;;;;4.60;100.00;101029.13;5342421;27;20044;-81
2022/01/07 10:06:22;;;;;;;10.02;6.65;;;;;;;4.61;100.00;101036.13;5305801;28;20146;-81
2022/01/07 10:09:10;;;;;;;10.23;6.18;;;;;;;4.75;100.00;101040.50;5324086;28;20144;-81
2022/01/07 10:11:41;;;;;;;12.80;6.30;;;;;;;4.84;100.00;101012.59;5323900;28;20046;-81
2022/01/07 10:14:13;;;;;;;10.93;6.47;;;;;;;4.88;100.00;101016.75;5323904;28;20028;-81
2022/01/07 10:16:49;;;;;;;11.88;5.80;;;;;;;4.81;100.00;101012.84;5307732;28;20033;-81
2022/01/07 10:19:38;;;;;;;8.32;5.95;;;;;;;4.85;100.00;101024.88;5302562;28;20385;-82
2022/01/07 10:22:12;;;;;;;8.50;6.10;;;;;;;4.89;100.00;101015.78;5322292;28;20028;-81
2022/01/07 10:24:58;;;;;;;11.77;6.35;;;;;;;5.03;100.00;101022.81;5324001;28;20354;-81
2022/01/07 10:27:38;;;;;;;12.80;5.57;;;;;;;5.03;100.00;101012.25;5323733;28;20436;-81
2022/01/07 10:30:11;;;;;;;7.68;5.88;;;;;;;5.11;100.00;101005.50;5323877;28;20032;-81
2022/01/07 10:32:42;;;;;;;12.25;5.78;;;;;;;5.02;100.00;101000.00;5323947;28;20031;-81
2022/01/07 10:35:17;;;;;;;13.52;5.70;;;;;;;4.99;100.00;101003.66;5323473;28;20472;-81
2022/01/07 10:37:54;;;;;;;10.98;5.70;;;;;;;5.03;100.00;101013.13;5323114;28;20036;-81
2022/01/07 10:40:31;;;;;;;11.25;5.10;;;;;;;5.06;100.00;101006.75;5323225;28;20151;-81
2022/01/07 10:43:24;;;;;;;14.48;5.43;;;;;;;5.10;100.00;100997.66;5327091;28;20554;-81
2022/01/07 10:46:24;;;;;;;9.63;4.93;;;;;;;5.21;100.00;100991.66;5326868;28;20548;-81
2022/01/07 10:48:56;;;;;;;9.43;5.68;;;;;;;5.29;100.00;100998.13;5314822;28;20031;-81
2022/01/07 10:51:38;;;;;;;7.78;5.10;;;;;;;5.53;100.00;101002.69;5324492;28;20484;-81
2022/01/07 10:54:17;;;;;;;11.23;4.80;;;;;;;5.71;100.00;100989.13;5326902;28;20016;-81
2022/01/07 10:56:48;;;;;;;12.02;4.97;;;;;;;5.59;100.00;101007.56;5326947;28;20109;-81
2022/01/07 10:59:20;;;;;;;9.95;4.25;;;;;;;5.63;100.00;100987.03;5327218;28;20047;-81
2022/01/07 11:01:56;;;;;;;9.27;4.57;;;;;;;5.87;100.00;100990.59;5326619;28;20360;-81
2022/01/07 11:04:30;;;;;;;9.80;4.32;;;;;;;6.03;100.00;100974.50;5327161;27;20048;-81
2022/01/07 11:07:09;;;;;;;6.18;4.63;;;;;;;6.41;100.00;100981.44;5327260;28;20036;-80
2022/01/07 11:09:41;;;;;;;8.43;4.53;;;;;;;6.52;100.00;100972.75;5326186;28;20112;-81
2022/01/07 11:12:15;;;;;;;10.60;5.05;;;;;;;7.31;100.00;100974.78;5326681;28;20024;-80
2022/01/07 11:14:46;;;;;;;7.60;3.90;;;;;;;7.89;100.00;100964.94;5326479;28;20547;-81
2022/01/07 11:17:21;;;;;;;12.95;4.22;;;;;;;7.41;100.00;100983.72;5326988;28;20103;-81
2022/01/07 11:20:01;;;;;;;10.27;3.95;;;;;;;6.52;100.00;100980.69;5326201;28;20337;-81
2022/01/07 11:22:38;;;;;;;10.82;4.05;;;;;;;6.16;100.00;100977.09;5326036;28;20027;-81
2022/01/07 11:25:11;;;;;;;9.05;3.58;;;;;;;5.55;100.00;100976.94;5307966;28;20036;-81
2022/01/07 11:27:57;;;;;;;12.00;5.20;;;;;;;5.36;100.00;100984.47;5307847;28;20111;-81
2022/01/07 11:30:32;;;;;;;7.57;4.37;;;;;;;5.36;100.00;100990.59;5305415;28;20107;-81
2022/01/07 11:33:21;;;;;;;9.68;4.57;;;;;;;5.50;100.00;100989.66;5305303;28;20494;-80
2022/01/07 11:35:53;;;;;;;10.15;4.70;;;;;;;5.63;100.00;100987.88;5289543;28;20028;-81
2022/01/07 11:38:44;;;;;;;10.20;4.65;;;;;;;5.71;100.00;100976.72;5326587;28;20012;-81
2022/01/07 11:41:55;;;;;;;8.65;4.05;;;;;;;5.91;100.00;100983.28;5326075;28;20042;-81
2022/01/07 11:44:30;;;;;;;13.50;4.45;;;;;;;6.25;100.00;100975.59;5325983;28;20031;-81
2022/01/07 11:47:13;;;;;;;7.25;3.15;;;;;;;6.52;100.00;100967.44;5325773;28;20372;-81
2022/01/07 11:49:44;;;;;;;8.27;3.20;;;;;;;6.29;100.00;100976.22;5325146;28;28881;-81